sensor_id;sensor_type;location;lat;lon;timestamp;temperature;humidity
52209;DHT22;38507;53.132;6.394;2023-04-03T00:01:26;2.90;99.90
52209;DHT22;38507;53.132;6.394;2023-04-03T00:03:52;2.90;99.90
52209;DHT22;38507;53.132;6.394;2023-04-03T00:06:18;2.90;99.90
52209;DHT22;38507;53.132;6.394;2023-04-03T00:08:44;2.80;99.90
52209;DHT22;38507;53.132;6.394;2023-04-03T00:11:10;2.80;99.90
52209;DHT22;38507;53.132;6.394;2023-04-03T00:13:36;2.80;99.90
52209;DHT22;38507;53.132;6.394;2023-04-03T00:16:02;2.80;99.90
52209;DHT22;38507;53.132;6.394;2023-04-03T00:18:30;2.80;99.90
52209;DHT22;38507;53.132;6.394;2023-04-03T00:20:55;2.70;99.90
52209;DHT22;38507;53.132;6.394;2023-04-03T00:23:21;3.40;99.90
52209;DHT22;38507;53.132;6.394;2023-04-03T00:25:49;2.70;99.90
52209;DHT22;38507;53.132;6.394;2023-04-03T00:28:15;2.70;99.90
52209;DHT22;38507;53.132;6.394;2023-04-03T00:30:41;2.60;99.90
52209;DHT22;38507;53.132;6.394;2023-04-03T00:33:07;2.60;99.90
52209;DHT22;38507;53.132;6.394;2023-04-03T00:35:34;2.60;99.90
52209;DHT22;38507;53.132;6.394;2023-04-03T00:38:00;2.60;99.90
52209;DHT22;38507;53.132;6.394;2023-04-03T00:40:27;2.50;99.90
52209;DHT22;38507;53.132;6.394;2023-04-03T00:42:58;2.50;99.90
52209;DHT22;38507;53.132;6.394;2023-04-03T00:45:36;2.80;99.90
52209;DHT22;38507;53.132;6.394;2023-04-03T00:48:05;2.40;99.90
52209;DHT22;38507;53.132;6.394;2023-04-03T00:50:33;2.40;99.90
52209;DHT22;38507;53.132;6.394;2023-04-03T00:53:00;2.40;99.90
52209;DHT22;38507;53.132;6.394;2023-04-03T00:55:26;2.40;99.90
52209;DHT22;38507;53.132;6.394;2023-04-03T00:57:53;2.30;99.90
52209;DHT22;38507;53.132;6.394;2023-04-03T01:00:21;2.30;99.90
52209;DHT22;38507;53.132;6.394;2023-04-03T01:02:48;2.30;99.90
52209;DHT22;38507;53.132;6.394;2023-04-03T01:05:15;2.30;99.90
52209;DHT22;38507;53.132;6.394;2023-04-03T01:07:41;2.30;99.90
52209;DHT22;38507;53.132;6.394;2023-04-03T01:10:10;2.20;99.90
52209;DHT22;38507;53.132;6.394;2023-04-03T01:12:38;2.20;99.90
52209;DHT22;38507;53.132;6.394;2023-04-03T01:15:11;2.50;99.90
52209;DHT22;38507;53.132;6.394;2023-04-03T01:17:51;2.10;99.90
52209;DHT22;38507;53.132;6.394;2023-04-03T01:28:09;2.00;99.90
52209;DHT22;38507;53.132;6.394;2023-04-03T01:30:48;2.00;99.90
52209;DHT22;38507;53.132;6.394;2023-04-03T01:33:15;1.90;99.90
52209;DHT22;38507;53.132;6.394;2023-04-03T01:35:41;1.90;99.90
52209;DHT22;38507;53.132;6.394;2023-04-03T01:38:07;1.90;99.90
52209;DHT22;38507;53.132;6.394;2023-04-03T01:40:32;1.90;99.90
52209;DHT22;38507;53.132;6.394;2023-04-03T01:42:58;1.80;99.90
52209;DHT22;38507;53.132;6.394;2023-04-03T01:45:24;1.80;99.90
52209;DHT22;38507;53.132;6.394;2023-04-03T01:47:49;1.70;99.90
52209;DHT22;38507;53.132;6.394;2023-04-03T01:50:16;1.80;99.90
52209;DHT22;38507;53.132;6.394;2023-04-03T01:52:42;1.70;99.90
52209;DHT22;38507;53.132;6.394;2023-04-03T01:55:08;1.70;99.90
52209;DHT22;38507;53.132;6.394;2023-04-03T01:57:33;1.70;99.90
52209;DHT22;38507;53.132;6.394;2023-04-03T01:59:59;1.70;99.90
52209;DHT22;38507;53.132;6.394;2023-04-03T02:02:25;1.60;99.90
52209;DHT22;38507;53.132;6.394;2023-04-03T02:04:50;1.60;99.90
52209;DHT22;38507;53.132;6.394;2023-04-03T02:07:16;1.60;99.90
52209;DHT22;38507;53.132;6.394;2023-04-03T02:09:42;1.50;99.90
52209;DHT22;38507;53.132;6.394;2023-04-03T02:12:07;1.50;99.90
52209;DHT22;38507;53.132;6.394;2023-04-03T02:14:33;1.80;99.90
52209;DHT22;38507;53.132;6.394;2023-04-03T02:17:00;1.50;99.90
52209;DHT22;38507;53.132;6.394;2023-04-03T02:19:26;1.40;99.90
52209;DHT22;38507;53.132;6.394;2023-04-03T02:21:52;1.40;99.90
52209;DHT22;38507;53.132;6.394;2023-04-03T02:24:17;1.40;99.90
52209;DHT22;38507;53.132;6.394;2023-04-03T02:26:43;1.40;99.90
52209;DHT22;38507;53.132;6.394;2023-04-03T02:29:08;1.30;99.90
52209;DHT22;38507;53.132;6.394;2023-04-03T02:31:34;1.30;99.90
52209;DHT22;38507;53.132;6.394;2023-04-03T02:34:00;1.30;99.90
52209;DHT22;38507;53.132;6.394;2023-04-03T02:36:25;1.30;99.90
52209;DHT22;38507;53.132;6.394;2023-04-03T02:38:51;1.20;99.90
52209;DHT22;38507;53.132;6.394;2023-04-03T02:41:16;1.20;99.90
52209;DHT22;38507;53.132;6.394;2023-04-03T02:43:42;1.20;99.90
52209;DHT22;38507;53.132;6.394;2023-04-03T02:46:08;1.20;99.90
52209;DHT22;38507;53.132;6.394;2023-04-03T02:48:34;1.10;99.90
52209;DHT22;38507;53.132;6.394;2023-04-03T02:51:00;1.10;99.90
52209;DHT22;38507;53.132;6.394;2023-04-03T02:53:26;1.10;99.90
52209;DHT22;38507;53.132;6.394;2023-04-03T02:55:52;1.10;99.90
52209;DHT22;38507;53.132;6.394;2023-04-03T02:58:18;1.10;99.90
52209;DHT22;38507;53.132;6.394;2023-04-03T03:00:43;1.00;99.90
52209;DHT22;38507;53.132;6.394;2023-04-03T03:03:09;1.00;99.90
52209;DHT22;38507;53.132;6.394;2023-04-03T03:05:35;1.00;99.90
52209;DHT22;38507;53.132;6.394;2023-04-03T03:08:01;1.00;99.90
52209;DHT22;38507;53.132;6.394;2023-04-03T03:10:27;0.90;99.90
52209;DHT22;38507;53.132;6.394;2023-04-03T03:12:52;0.90;99.90
52209;DHT22;38507;53.132;6.394;2023-04-03T03:15:18;0.90;99.90
52209;DHT22;38507;53.132;6.394;2023-04-03T03:17:44;0.90;99.90
52209;DHT22;38507;53.132;6.394;2023-04-03T03:20:11;0.90;99.90
52209;DHT22;38507;53.132;6.394;2023-04-03T03:22:37;0.80;99.90
52209;DHT22;38507;53.132;6.394;2023-04-03T03:25:03;0.80;99.90
52209;DHT22;38507;53.132;6.394;2023-04-03T03:27:29;0.80;99.90
52209;DHT22;38507;53.132;6.394;2023-04-03T03:29:54;0.80;99.90
52209;DHT22;38507;53.132;6.394;2023-04-03T03:32:20;0.70;99.90
52209;DHT22;38507;53.132;6.394;2023-04-03T03:34:46;1.30;99.90
52209;DHT22;38507;53.132;6.394;2023-04-03T03:37:11;0.70;99.90
52209;DHT22;38507;53.132;6.394;2023-04-03T03:39:37;0.60;99.90
52209;DHT22;38507;53.132;6.394;2023-04-03T03:42:03;0.60;99.90
52209;DHT22;38507;53.132;6.394;2023-04-03T03:44:29;0.60;99.90
52209;DHT22;38507;53.132;6.394;2023-04-03T03:46:55;0.60;99.90
52209;DHT22;38507;53.132;6.394;2023-04-03T03:49:21;0.60;99.90
52209;DHT22;38507;53.132;6.394;2023-04-03T03:51:47;0.50;99.90
52209;DHT22;38507;53.132;6.394;2023-04-03T03:54:13;0.50;99.90
52209;DHT22;38507;53.132;6.394;2023-04-03T03:56:39;0.50;99.90
52209;DHT22;38507;53.132;6.394;2023-04-03T03:59:05;0.40;99.90
52209;DHT22;38507;53.132;6.394;2023-04-03T04:01:32;0.40;99.90
52209;DHT22;38507;53.132;6.394;2023-04-03T04:03:57;0.40;99.90
52209;DHT22;38507;53.132;6.394;2023-04-03T04:06:23;0.40;99.90
52209;DHT22;38507;53.132;6.394;2023-04-03T04:08:49;0.30;99.90
52209;DHT22;38507;53.132;6.394;2023-04-03T04:11:14;0.30;99.90
52209;DHT22;38507;53.132;6.394;2023-04-03T04:13:40;0.20;99.90
52209;DHT22;38507;53.132;6.394;2023-04-03T04:16:07;0.20;99.90
52209;DHT22;38507;53.132;6.394;2023-04-03T04:18:33;0.20;99.90
52209;DHT22;38507;53.132;6.394;2023-04-03T04:20:58;0.20;99.90
52209;DHT22;38507;53.132;6.394;2023-04-03T04:23:24;0.20;99.90
52209;DHT22;38507;53.132;6.394;2023-04-03T04:25:50;0.20;99.90
52209;DHT22;38507;53.132;6.394;2023-04-03T04:28:16;0.10;99.90
52209;DHT22;38507;53.132;6.394;2023-04-03T04:30:41;0.10;99.90
52209;DHT22;38507;53.132;6.394;2023-04-03T04:33:07;0.10;99.90
52209;DHT22;38507;53.132;6.394;2023-04-03T04:35:34;0.10;99.90
52209;DHT22;38507;53.132;6.394;2023-04-03T04:38:00;0.10;99.90
52209;DHT22;38507;53.132;6.394;2023-04-03T04:40:26;0.10;99.90
52209;DHT22;38507;53.132;6.394;2023-04-03T04:42:52;0.90;99.90
52209;DHT22;38507;53.132;6.394;2023-04-03T04:45:18;0.00;99.90
52209;DHT22;38507;53.132;6.394;2023-04-03T04:47:43;0.00;99.90
52209;DHT22;38507;53.132;6.394;2023-04-03T04:50:10;0.00;99.90
52209;DHT22;38507;53.132;6.394;2023-04-03T04:52:35;0.00;99.90
52209;DHT22;38507;53.132;6.394;2023-04-03T04:55:01;0.00;99.90
52209;DHT22;38507;53.132;6.394;2023-04-03T04:57:27;0.00;99.90
52209;DHT22;38507;53.132;6.394;2023-04-03T04:59:52;-0.10;99.90
52209;DHT22;38507;53.132;6.394;2023-04-03T05:02:18;-0.10;99.90
52209;DHT22;38507;53.132;6.394;2023-04-03T05:04:44;-0.10;99.90
52209;DHT22;38507;53.132;6.394;2023-04-03T05:07:09;-0.10;99.90
52209;DHT22;38507;53.132;6.394;2023-04-03T05:09:35;-0.10;99.90
52209;DHT22;38507;53.132;6.394;2023-04-03T05:12:01;-0.10;99.90
52209;DHT22;38507;53.132;6.394;2023-04-03T05:14:28;-0.10;99.90
52209;DHT22;38507;53.132;6.394;2023-04-03T05:16:54;-0.10;99.90
52209;DHT22;38507;53.132;6.394;2023-04-03T05:19:22;-0.10;99.90
52209;DHT22;38507;53.132;6.394;2023-04-03T05:21:48;-0.10;99.90
52209;DHT22;38507;53.132;6.394;2023-04-03T05:24:15;-0.20;99.90
52209;DHT22;38507;53.132;6.394;2023-04-03T05:26:42;-0.20;99.90
52209;DHT22;38507;53.132;6.394;2023-04-03T05:29:08;-0.20;99.90
52209;DHT22;38507;53.132;6.394;2023-04-03T05:31:34;-0.10;99.90
52209;DHT22;38507;53.132;6.394;2023-04-03T05:34:00;-0.10;99.90
52209;DHT22;38507;53.132;6.394;2023-04-03T05:36:25;-0.10;99.90
52209;DHT22;38507;53.132;6.394;2023-04-03T05:38:52;-0.20;99.90
52209;DHT22;38507;53.132;6.394;2023-04-03T05:41:17;0.50;99.90
52209;DHT22;38507;53.132;6.394;2023-04-03T05:43:43;-0.10;99.90
52209;DHT22;38507;53.132;6.394;2023-04-03T05:46:17;-0.10;99.90
52209;DHT22;38507;53.132;6.394;2023-04-03T05:48:44;-0.10;99.90
52209;DHT22;38507;53.132;6.394;2023-04-03T05:51:28;-0.10;99.90
52209;DHT22;38507;53.132;6.394;2023-04-03T05:53:56;0.50;99.90
52209;DHT22;38507;53.132;6.394;2023-04-03T05:56:25;0.50;99.90
52209;DHT22;38507;53.132;6.394;2023-04-03T05:58:51;-0.10;99.90
52209;DHT22;38507;53.132;6.394;2023-04-03T06:01:16;0.00;99.90
52209;DHT22;38507;53.132;6.394;2023-04-03T06:03:42;0.00;99.90
52209;DHT22;38507;53.132;6.394;2023-04-03T06:06:08;0.00;99.90
52209;DHT22;38507;53.132;6.394;2023-04-03T06:08:37;0.10;99.90
52209;DHT22;38507;53.132;6.394;2023-04-03T06:11:03;0.10;99.90
52209;DHT22;38507;53.132;6.394;2023-04-03T06:13:29;0.20;99.90
52209;DHT22;38507;53.132;6.394;2023-04-03T06:15:55;0.20;99.90
52209;DHT22;38507;53.132;6.394;2023-04-03T06:18:21;0.20;99.90
52209;DHT22;38507;53.132;6.394;2023-04-03T06:20:47;0.30;99.90
52209;DHT22;38507;53.132;6.394;2023-04-03T06:23:12;0.30;99.90
52209;DHT22;38507;53.132;6.394;2023-04-03T06:25:38;0.40;99.90
52209;DHT22;38507;53.132;6.394;2023-04-03T06:28:03;0.40;99.90
52209;DHT22;38507;53.132;6.394;2023-04-03T06:30:29;0.40;99.90
52209;DHT22;38507;53.132;6.394;2023-04-03T06:32:55;0.50;99.90
52209;DHT22;38507;53.132;6.394;2023-04-03T06:35:21;0.90;99.90
52209;DHT22;38507;53.132;6.394;2023-04-03T06:37:49;0.60;99.90
52209;DHT22;38507;53.132;6.394;2023-04-03T06:40:23;0.60;99.90
52209;DHT22;38507;53.132;6.394;2023-04-03T06:42:49;0.70;99.90
52209;DHT22;38507;53.132;6.394;2023-04-03T06:45:15;0.70;99.90
52209;DHT22;38507;53.132;6.394;2023-04-03T06:47:41;0.80;99.90
52209;DHT22;38507;53.132;6.394;2023-04-03T06:50:07;0.90;99.90
52209;DHT22;38507;53.132;6.394;2023-04-03T06:52:34;0.90;99.90
52209;DHT22;38507;53.132;6.394;2023-04-03T06:55:00;1.00;99.90
52209;DHT22;38507;53.132;6.394;2023-04-03T06:57:26;1.10;99.90
52209;DHT22;38507;53.132;6.394;2023-04-03T06:59:51;1.10;99.90
52209;DHT22;38507;53.132;6.394;2023-04-03T07:02:17;1.10;99.90
52209;DHT22;38507;53.132;6.394;2023-04-03T07:04:43;1.20;99.90
52209;DHT22;38507;53.132;6.394;2023-04-03T07:07:08;1.30;99.90
52209;DHT22;38507;53.132;6.394;2023-04-03T07:09:34;1.30;99.90
52209;DHT22;38507;53.132;6.394;2023-04-03T07:12:00;1.40;99.90
52209;DHT22;38507;53.132;6.394;2023-04-03T07:14:25;1.50;99.90
52209;DHT22;38507;53.132;6.394;2023-04-03T07:16:51;1.60;99.90
52209;DHT22;38507;53.132;6.394;2023-04-03T07:19:17;1.60;99.90
52209;DHT22;38507;53.132;6.394;2023-04-03T07:21:44;1.70;99.90
52209;DHT22;38507;53.132;6.394;2023-04-03T07:24:10;1.80;99.90
52209;DHT22;38507;53.132;6.394;2023-04-03T07:26:36;1.80;99.90
52209;DHT22;38507;53.132;6.394;2023-04-03T07:29:02;1.90;99.90
52209;DHT22;38507;53.132;6.394;2023-04-03T07:31:28;2.00;99.90
52209;DHT22;38507;53.132;6.394;2023-04-03T07:33:54;2.60;99.90
52209;DHT22;38507;53.132;6.394;2023-04-03T07:36:21;2.10;99.90
52209;DHT22;38507;53.132;6.394;2023-04-03T07:38:47;2.20;99.90
52209;DHT22;38507;53.132;6.394;2023-04-03T07:41:18;2.80;99.90
52209;DHT22;38507;53.132;6.394;2023-04-03T07:43:45;2.40;99.90
52209;DHT22;38507;53.132;6.394;2023-04-03T07:46:12;2.40;99.90
52209;DHT22;38507;53.132;6.394;2023-04-03T07:48:38;2.50;99.90
52209;DHT22;38507;53.132;6.394;2023-04-03T07:51:04;2.60;99.90
52209;DHT22;38507;53.132;6.394;2023-04-03T07:53:31;2.70;99.90
52209;DHT22;38507;53.132;6.394;2023-04-03T07:55:58;2.80;99.90
52209;DHT22;38507;53.132;6.394;2023-04-03T07:58:24;2.90;99.90
52209;DHT22;38507;53.132;6.394;2023-04-03T08:00:51;3.00;99.90
52209;DHT22;38507;53.132;6.394;2023-04-03T08:03:17;3.10;99.90
52209;DHT22;38507;53.132;6.394;2023-04-03T08:05:47;3.30;99.90
52209;DHT22;38507;53.132;6.394;2023-04-03T08:08:16;3.40;99.90
52209;DHT22;38507;53.132;6.394;2023-04-03T08:10:42;4.30;99.90
52209;DHT22;38507;53.132;6.394;2023-04-03T08:13:08;3.70;99.90
52209;DHT22;38507;53.132;6.394;2023-04-03T08:15:34;4.00;99.90
52209;DHT22;38507;53.132;6.394;2023-04-03T08:18:01;4.00;99.90
52209;DHT22;38507;53.132;6.394;2023-04-03T08:20:28;4.20;99.90
52209;DHT22;38507;53.132;6.394;2023-04-03T08:22:54;4.30;99.90
52209;DHT22;38507;53.132;6.394;2023-04-03T08:25:20;4.40;99.90
52209;DHT22;38507;53.132;6.394;2023-04-03T08:27:46;4.60;99.90
52209;DHT22;38507;53.132;6.394;2023-04-03T08:30:12;4.80;99.90
52209;DHT22;38507;53.132;6.394;2023-04-03T08:32:38;5.00;99.90
52209;DHT22;38507;53.132;6.394;2023-04-03T08:35:04;5.80;99.90
52209;DHT22;38507;53.132;6.394;2023-04-03T08:37:30;5.50;99.90
52209;DHT22;38507;53.132;6.394;2023-04-03T08:39:57;5.80;99.90
52209;DHT22;38507;53.132;6.394;2023-04-03T08:42:41;6.00;99.90
52209;DHT22;38507;53.132;6.394;2023-04-03T08:45:22;6.10;99.90
52209;DHT22;38507;53.132;6.394;2023-04-03T08:48:36;6.20;99.90
52209;DHT22;38507;53.132;6.394;2023-04-03T08:51:00;6.50;99.90
52209;DHT22;38507;53.132;6.394;2023-04-03T08:53:32;6.70;99.90
52209;DHT22;38507;53.132;6.394;2023-04-03T08:56:08;6.90;99.90
52209;DHT22;38507;53.132;6.394;2023-04-03T08:58:53;7.10;99.90
52209;DHT22;38507;53.132;6.394;2023-04-03T09:01:33;7.30;99.90
52209;DHT22;38507;53.132;6.394;2023-04-03T09:04:01;7.50;99.90
52209;DHT22;38507;53.132;6.394;2023-04-03T09:06:31;8.10;99.90
52209;DHT22;38507;53.132;6.394;2023-04-03T09:09:12;7.90;99.90
52209;DHT22;38507;53.132;6.394;2023-04-03T09:12:04;8.00;99.90
52209;DHT22;38507;53.132;6.394;2023-04-03T09:15:02;8.10;99.90
52209;DHT22;38507;53.132;6.394;2023-04-03T09:26:25;8.70;99.90
52209;DHT22;38507;53.132;6.394;2023-04-03T09:28:54;8.80;99.90
52209;DHT22;38507;53.132;6.394;2023-04-03T09:31:25;9.40;99.90
52209;DHT22;38507;53.132;6.394;2023-04-03T09:33:54;9.10;99.90
52209;DHT22;38507;53.132;6.394;2023-04-03T09:36:45;9.30;99.90
52209;DHT22;38507;53.132;6.394;2023-04-03T09:39:16;9.30;99.90
52209;DHT22;38507;53.132;6.394;2023-04-03T09:41:55;9.40;99.90
52209;DHT22;38507;53.132;6.394;2023-04-03T09:44:27;9.90;99.90
52209;DHT22;38507;53.132;6.394;2023-04-03T09:46:53;9.70;99.90
52209;DHT22;38507;53.132;6.394;2023-04-03T09:49:19;9.90;99.90
52209;DHT22;38507;53.132;6.394;2023-04-03T09:51:45;9.90;99.90
52209;DHT22;38507;53.132;6.394;2023-04-03T09:57:01;10.20;99.90
52209;DHT22;38507;53.132;6.394;2023-04-03T09:59:27;10.70;99.90
52209;DHT22;38507;53.132;6.394;2023-04-03T10:02:02;10.30;99.90
52209;DHT22;38507;53.132;6.394;2023-04-03T10:04:38;10.60;99.90
52209;DHT22;38507;53.132;6.394;2023-04-03T10:07:34;10.80;99.90
52209;DHT22;38507;53.132;6.394;2023-04-03T10:10:24;10.70;99.50
52209;DHT22;38507;53.132;6.394;2023-04-03T10:13:05;11.00;98.80
52209;DHT22;38507;53.132;6.394;2023-04-03T10:15:38;10.90;97.50
52209;DHT22;38507;53.132;6.394;2023-04-03T10:18:27;11.10;99.30
52209;DHT22;38507;53.132;6.394;2023-04-03T10:21:02;10.80;99.50
52209;DHT22;38507;53.132;6.394;2023-04-03T10:23:42;10.90;96.30
52209;DHT22;38507;53.132;6.394;2023-04-03T10:26:45;10.90;97.50
52209;DHT22;38507;53.132;6.394;2023-04-03T10:34:45;11.40;97.60
52209;DHT22;38507;53.132;6.394;2023-04-03T10:39:57;11.70;96.50
52209;DHT22;38507;53.132;6.394;2023-04-03T10:58:56;11.80;94.10
52209;DHT22;38507;53.132;6.394;2023-04-03T11:01:39;12.00;94.30
52209;DHT22;38507;53.132;6.394;2023-04-03T11:04:06;11.90;92.30
52209;DHT22;38507;53.132;6.394;2023-04-03T11:06:42;11.80;94.00
52209;DHT22;38507;53.132;6.394;2023-04-03T11:09:26;11.80;93.60
52209;DHT22;38507;53.132;6.394;2023-04-03T11:11:56;12.00;92.90
52209;DHT22;38507;53.132;6.394;2023-04-03T11:14:31;12.10;93.00
52209;DHT22;38507;53.132;6.394;2023-04-03T11:17:11;12.00;91.60
52209;DHT22;38507;53.132;6.394;2023-04-03T11:22:48;12.10;92.30
52209;DHT22;38507;53.132;6.394;2023-04-03T11:25:24;12.00;91.30
52209;DHT22;38507;53.132;6.394;2023-04-03T11:27:57;12.10;91.20
52209;DHT22;38507;53.132;6.394;2023-04-03T11:30:37;12.00;91.60
52209;DHT22;38507;53.132;6.394;2023-04-03T11:36:12;12.00;88.80
52209;DHT22;38507;53.132;6.394;2023-04-03T11:38:46;12.10;90.70
52209;DHT22;38507;53.132;6.394;2023-04-03T11:41:13;12.30;91.60
52209;DHT22;38507;53.132;6.394;2023-04-03T11:44:01;12.10;86.40
52209;DHT22;38507;53.132;6.394;2023-04-03T11:46:49;12.20;89.40
52209;DHT22;38507;53.132;6.394;2023-04-03T11:49:50;12.40;89.80
52209;DHT22;38507;53.132;6.394;2023-04-03T11:52:54;12.20;87.70
52209;DHT22;38507;53.132;6.394;2023-04-03T12:13:41;12.40;89.30
52209;DHT22;38507;53.132;6.394;2023-04-03T12:26:50;12.60;89.90
52209;DHT22;38507;53.132;6.394;2023-04-03T12:29:27;12.80;86.40
52209;DHT22;38507;53.132;6.394;2023-04-03T12:31:58;12.80;88.00
52209;DHT22;38507;53.132;6.394;2023-04-03T12:40:00;12.90;87.10
52209;DHT22;38507;53.132;6.394;2023-04-03T12:42:38;12.80;86.10
52209;DHT22;38507;53.132;6.394;2023-04-03T12:45:20;13.00;86.90
52209;DHT22;38507;53.132;6.394;2023-04-03T12:47:49;13.00;86.80
52209;DHT22;38507;53.132;6.394;2023-04-03T12:50:31;12.80;84.50
52209;DHT22;38507;53.132;6.394;2023-04-03T12:53:01;13.00;85.00
52209;DHT22;38507;53.132;6.394;2023-04-03T12:55:29;12.90;84.60
52209;DHT22;38507;53.132;6.394;2023-04-03T12:57:55;12.70;83.80
52209;DHT22;38507;53.132;6.394;2023-04-03T13:02:53;12.60;83.80
52209;DHT22;38507;53.132;6.394;2023-04-03T13:05:19;12.90;84.30
52209;DHT22;38507;53.132;6.394;2023-04-03T13:08:05;12.90;84.60
52209;DHT22;38507;53.132;6.394;2023-04-03T13:11:03;13.00;83.30
52209;DHT22;38507;53.132;6.394;2023-04-03T13:13:29;13.00;83.50
52209;DHT22;38507;53.132;6.394;2023-04-03T13:15:55;13.10;84.30
52209;DHT22;38507;53.132;6.394;2023-04-03T13:59:22;14.10;81.60
52209;DHT22;38507;53.132;6.394;2023-04-03T14:01:53;13.90;79.60
52209;DHT22;38507;53.132;6.394;2023-04-03T14:06:46;13.90;82.60
52209;DHT22;38507;53.132;6.394;2023-04-03T14:09:12;14.10;83.00
52209;DHT22;38507;53.132;6.394;2023-04-03T14:11:40;14.20;81.90
52209;DHT22;38507;53.132;6.394;2023-04-03T14:14:20;14.10;81.30
52209;DHT22;38507;53.132;6.394;2023-04-03T14:16:51;14.20;78.50
52209;DHT22;38507;53.132;6.394;2023-04-03T14:19:21;14.10;81.10
52209;DHT22;38507;53.132;6.394;2023-04-03T14:21:48;14.10;80.50
52209;DHT22;38507;53.132;6.394;2023-04-03T14:24:14;14.10;80.20
52209;DHT22;38507;53.132;6.394;2023-04-03T14:26:39;14.00;79.40
52209;DHT22;38507;53.132;6.394;2023-04-03T14:29:06;13.90;79.40
52209;DHT22;38507;53.132;6.394;2023-04-03T14:31:32;13.70;78.30
52209;DHT22;38507;53.132;6.394;2023-04-03T14:33:57;13.50;78.90
52209;DHT22;38507;53.132;6.394;2023-04-03T14:36:25;13.50;79.80
52209;DHT22;38507;53.132;6.394;2023-04-03T14:38:53;13.70;78.70
52209;DHT22;38507;53.132;6.394;2023-04-03T14:41:22;13.60;78.90
52209;DHT22;38507;53.132;6.394;2023-04-03T14:43:48;13.60;79.00
52209;DHT22;38507;53.132;6.394;2023-04-03T14:46:16;13.70;80.20
52209;DHT22;38507;53.132;6.394;2023-04-03T14:48:43;13.90;79.90
52209;DHT22;38507;53.132;6.394;2023-04-03T14:51:13;13.90;80.60
52209;DHT22;38507;53.132;6.394;2023-04-03T14:53:40;13.90;81.00
52209;DHT22;38507;53.132;6.394;2023-04-03T14:56:18;14.10;81.40
52209;DHT22;38507;53.132;6.394;2023-04-03T14:58:44;14.20;81.10
52209;DHT22;38507;53.132;6.394;2023-04-03T15:01:13;14.30;81.40
52209;DHT22;38507;53.132;6.394;2023-04-03T15:03:39;14.10;79.90
52209;DHT22;38507;53.132;6.394;2023-04-03T15:06:05;14.20;80.60
52209;DHT22;38507;53.132;6.394;2023-04-03T15:08:31;14.20;82.10
52209;DHT22;38507;53.132;6.394;2023-04-03T15:10:57;14.10;78.90
52209;DHT22;38507;53.132;6.394;2023-04-03T15:13:23;13.80;79.30
52209;DHT22;38507;53.132;6.394;2023-04-03T15:15:50;13.80;80.00
52209;DHT22;38507;53.132;6.394;2023-04-03T15:18:20;13.80;80.40
52209;DHT22;38507;53.132;6.394;2023-04-03T15:20:47;13.80;80.00
52209;DHT22;38507;53.132;6.394;2023-04-03T15:23:14;13.80;78.60
52209;DHT22;38507;53.132;6.394;2023-04-03T15:25:42;13.70;80.10
52209;DHT22;38507;53.132;6.394;2023-04-03T15:28:15;13.70;79.70
52209;DHT22;38507;53.132;6.394;2023-04-03T15:30:43;13.70;80.20
52209;DHT22;38507;53.132;6.394;2023-04-03T15:33:08;13.70;80.70
52209;DHT22;38507;53.132;6.394;2023-04-03T15:35:34;13.80;80.30
52209;DHT22;38507;53.132;6.394;2023-04-03T15:38:00;13.70;81.30
52209;DHT22;38507;53.132;6.394;2023-04-03T15:40:25;13.70;81.00
52209;DHT22;38507;53.132;6.394;2023-04-03T15:42:51;13.80;80.40
52209;DHT22;38507;53.132;6.394;2023-04-03T15:45:17;13.70;82.00
52209;DHT22;38507;53.132;6.394;2023-04-03T15:47:43;14.10;83.20
52209;DHT22;38507;53.132;6.394;2023-04-03T15:50:09;14.00;82.90
52209;DHT22;38507;53.132;6.394;2023-04-03T15:52:35;14.10;82.20
52209;DHT22;38507;53.132;6.394;2023-04-03T15:55:01;13.90;80.90
52209;DHT22;38507;53.132;6.394;2023-04-03T15:57:27;13.70;81.50
52209;DHT22;38507;53.132;6.394;2023-04-03T15:59:53;13.60;79.40
52209;DHT22;38507;53.132;6.394;2023-04-03T16:02:19;13.60;80.80
52209;DHT22;38507;53.132;6.394;2023-04-03T16:04:45;13.70;80.50
52209;DHT22;38507;53.132;6.394;2023-04-03T16:07:11;13.70;76.90
52209;DHT22;38507;53.132;6.394;2023-04-03T16:09:36;13.60;78.60
52209;DHT22;38507;53.132;6.394;2023-04-03T16:12:02;13.30;79.20
52209;DHT22;38507;53.132;6.394;2023-04-03T16:14:28;13.30;78.90
52209;DHT22;38507;53.132;6.394;2023-04-03T16:16:56;13.60;80.40
52209;DHT22;38507;53.132;6.394;2023-04-03T16:19:22;13.70;80.10
52209;DHT22;38507;53.132;6.394;2023-04-03T16:21:48;13.60;78.60
52209;DHT22;38507;53.132;6.394;2023-04-03T16:24:14;13.60;79.90
52209;DHT22;38507;53.132;6.394;2023-04-03T16:26:39;13.50;80.10
52209;DHT22;38507;53.132;6.394;2023-04-03T16:29:05;13.60;81.50
52209;DHT22;38507;53.132;6.394;2023-04-03T16:31:32;13.60;81.90
52209;DHT22;38507;53.132;6.394;2023-04-03T16:33:58;13.70;82.40
52209;DHT22;38507;53.132;6.394;2023-04-03T16:36:24;13.50;82.10
52209;DHT22;38507;53.132;6.394;2023-04-03T16:38:51;13.60;82.10
52209;DHT22;38507;53.132;6.394;2023-04-03T16:41:16;13.60;82.60
52209;DHT22;38507;53.132;6.394;2023-04-03T16:43:42;13.10;79.90
52209;DHT22;38507;53.132;6.394;2023-04-03T16:46:08;13.10;81.70
52209;DHT22;38507;53.132;6.394;2023-04-03T16:48:34;13.10;81.90
52209;DHT22;38507;53.132;6.394;2023-04-03T16:50:59;13.10;82.10
52209;DHT22;38507;53.132;6.394;2023-04-03T16:53:26;13.20;83.50
52209;DHT22;38507;53.132;6.394;2023-04-03T16:55:52;13.50;82.60
52209;DHT22;38507;53.132;6.394;2023-04-03T16:58:18;13.40;82.60
52209;DHT22;38507;53.132;6.394;2023-04-03T17:00:44;13.30;81.40
52209;DHT22;38507;53.132;6.394;2023-04-03T17:03:10;13.00;82.50
52209;DHT22;38507;53.132;6.394;2023-04-03T17:05:35;13.00;83.20
52209;DHT22;38507;53.132;6.394;2023-04-03T17:08:01;12.70;81.70
52209;DHT22;38507;53.132;6.394;2023-04-03T17:10:27;13.00;83.20
52209;DHT22;38507;53.132;6.394;2023-04-03T17:12:53;12.90;82.70
52209;DHT22;38507;53.132;6.394;2023-04-03T17:15:19;13.10;82.60
52209;DHT22;38507;53.132;6.394;2023-04-03T17:17:46;13.10;82.90
52209;DHT22;38507;53.132;6.394;2023-04-03T17:20:12;12.30;82.00
52209;DHT22;38507;53.132;6.394;2023-04-03T17:22:38;11.70;83.40
52209;DHT22;38507;53.132;6.394;2023-04-03T17:25:05;11.50;83.50
52209;DHT22;38507;53.132;6.394;2023-04-03T17:27:30;11.20;84.10
52209;DHT22;38507;53.132;6.394;2023-04-03T17:29:56;10.90;84.30
52209;DHT22;38507;53.132;6.394;2023-04-03T17:32:22;10.70;85.40
52209;DHT22;38507;53.132;6.394;2023-04-03T17:34:48;10.60;85.70
52209;DHT22;38507;53.132;6.394;2023-04-03T17:37:13;10.50;86.20
52209;DHT22;38507;53.132;6.394;2023-04-03T17:39:39;10.80;87.60
52209;DHT22;38507;53.132;6.394;2023-04-03T17:42:05;10.20;87.60
52209;DHT22;38507;53.132;6.394;2023-04-03T17:44:31;10.40;88.00
52209;DHT22;38507;53.132;6.394;2023-04-03T17:46:56;10.50;88.30
52209;DHT22;38507;53.132;6.394;2023-04-03T17:49:22;10.20;88.60
52209;DHT22;38507;53.132;6.394;2023-04-03T17:51:48;10.20;89.10
52209;DHT22;38507;53.132;6.394;2023-04-03T17:54:13;9.80;88.70
52209;DHT22;38507;53.132;6.394;2023-04-03T17:56:39;9.60;89.30
52209;DHT22;38507;53.132;6.394;2023-04-03T17:59:12;9.20;89.70